Los Angeles, California
Traffic Map
Current Weather Conditions
Los Angeles, California
Overcast Light Rain
Overcast
51°
Feels Like: 51°
Wind Chill: 51° Ceiling: 5500
Heat Index: 51° Visibility: 8mi
Dew Point: 45° Wind: 3mph
Humidity: 80% Direction: 60° (ENE)
Pressure: 30.02in Gusts: 0mph
Raw Report DataKCQT 191447Z AUTO 06003KT 8SM -RA BKN055 OVC070 11/07 A3002 RMK AO2 RAB1359 SLP165 P0002 60002 T01060072 53005
Traffic Incident Summary
Active as of:
Severity:
Category:
InformationThere was an issue retrieving the traffic information for this location. Please try a different location or try again shortly.
Advertisements